Farm Ridge, Illinois
Current Conditions -  °F | °C
As of 5:15 AM on Wednesday 26 Nov 2014 (Local Time) from KVYS Reporting Station
Haze Haze  
Wind Chill: -13°   Ceiling: Unl
Heat Index: -9°   Visibility: 5mi
Dew Point: -10°   Wind: 6mph
Humidity: 93%   Direction: 90°E
Pressure: 30.13"   Gusts: NA
Location:  41.2419°N, 88.7998°W
Report Text: KVYS 261115Z AUTO 09005KT 5SM BR CLR M08/M09 A3013 RMK AO2 T10851095
Loading
Personal Weather Stations






























Interactive Weather Map New forecast layout! Learn more

10-Day Weather Forecast

Advertisements
Track Severe Weather on mobile